createdAt,value
2024-04-22T00:01:49.818Z,22.19
2024-04-22T00:04:19.690Z,22.19
2024-04-22T00:06:47.293Z,22.19
2024-04-22T00:09:17.473Z,22.18
2024-04-22T00:11:44.534Z,22.18
2024-04-22T00:14:14.928Z,22.18
2024-04-22T00:16:42.168Z,22.20
2024-04-22T00:19:14.905Z,22.19
2024-04-22T00:21:42.072Z,22.17
2024-04-22T00:24:11.809Z,22.18
2024-04-22T00:26:39.832Z,22.18
2024-04-22T00:29:10.086Z,22.18
2024-04-22T00:31:37.361Z,22.17
2024-04-22T00:34:07.231Z,22.17
2024-04-22T00:36:37.097Z,22.17
2024-04-22T00:39:06.896Z,22.16
2024-04-22T00:41:35.227Z,22.15
2024-04-22T00:44:05.070Z,22.16
2024-04-22T00:46:32.362Z,22.16
2024-04-22T00:49:02.408Z,22.14
2024-04-22T00:51:29.700Z,22.14
2024-04-22T00:54:03.150Z,22.14
2024-04-22T00:56:30.359Z,22.15
2024-04-22T00:59:01.785Z,22.20
2024-04-22T01:01:29.094Z,22.15
2024-04-22T01:03:59.152Z,22.17
2024-04-22T01:06:26.358Z,22.17
2024-04-22T01:08:56.117Z,22.14
2024-04-22T01:11:26.047Z,22.18
2024-04-22T01:13:55.861Z,22.14
2024-04-22T01:16:22.922Z,22.14
2024-04-22T01:18:52.630Z,22.14
2024-04-22T01:21:25.589Z,22.13
2024-04-22T01:23:55.917Z,22.12
2024-04-22T01:26:23.766Z,22.11
2024-04-22T01:28:53.578Z,22.12
2024-04-22T01:31:20.754Z,22.14
2024-04-22T01:33:50.736Z,22.13
2024-04-22T01:36:17.803Z,22.12
2024-04-22T01:38:51.284Z,22.14
2024-04-22T01:41:18.397Z,22.13
2024-04-22T01:43:48.400Z,22.12
2024-04-22T01:46:15.695Z,22.12
2024-04-22T01:48:45.515Z,22.10
2024-04-22T01:51:12.717Z,22.10
2024-04-22T01:53:42.594Z,22.11
2024-04-22T01:56:12.384Z,22.12
2024-04-22T01:58:42.179Z,22.12
2024-04-22T02:01:09.796Z,22.12
2024-04-22T02:03:39.697Z,22.10
2024-04-22T02:06:06.826Z,22.11
2024-04-22T02:08:36.585Z,22.09
2024-04-22T02:11:04.049Z,22.14
2024-04-22T02:13:36.682Z,22.12
2024-04-22T02:16:04.102Z,22.12
2024-04-22T02:18:34.535Z,22.14
2024-04-22T02:21:01.756Z,22.12
2024-04-22T02:23:31.520Z,22.12
2024-04-22T02:25:58.587Z,22.12
2024-04-22T02:28:28.360Z,22.13
2024-04-22T02:30:58.294Z,22.12
2024-04-22T02:33:28.182Z,22.14
2024-04-22T02:35:55.648Z,22.14
2024-04-22T02:38:25.357Z,22.13
2024-04-22T02:40:52.456Z,22.13
2024-04-22T02:43:22.217Z,22.15
2024-04-22T02:45:49.371Z,22.14
2024-04-22T02:48:21.902Z,22.15
2024-04-22T02:50:49.067Z,22.14
2024-04-22T02:53:18.881Z,22.14
2024-04-22T02:55:46.499Z,22.13
2024-04-22T02:58:16.354Z,22.14
2024-04-22T03:00:48.007Z,22.13
2024-04-22T03:03:18.026Z,22.12
2024-04-22T03:05:47.772Z,22.12
2024-04-22T03:08:17.570Z,22.12
2024-04-22T03:10:44.666Z,22.09
2024-04-22T03:13:14.533Z,22.10
2024-04-22T03:15:41.655Z,22.08
2024-04-22T03:18:11.786Z,22.07
2024-04-22T03:20:38.922Z,22.09
2024-04-22T03:23:11.351Z,22.07
2024-04-22T03:25:38.587Z,22.08
2024-04-22T03:28:08.899Z,22.08
2024-04-22T03:30:36.077Z,22.07
2024-04-22T03:33:05.883Z,22.07
2024-04-22T03:35:33.479Z,22.06
2024-04-22T03:38:03.197Z,22.06
2024-04-22T03:40:35.769Z,22.05
2024-04-22T03:43:05.680Z,22.06
2024-04-22T03:45:35.539Z,22.06
2024-04-22T03:48:21.498Z,22.06
2024-04-22T03:50:51.412Z,22.05
2024-04-22T03:53:21.078Z,22.06
2024-04-22T03:55:53.511Z,22.06
2024-04-22T03:58:23.221Z,22.07
2024-04-22T04:00:50.399Z,22.06
2024-04-22T04:03:20.240Z,22.07
2024-04-22T04:05:47.296Z,22.05
2024-04-22T04:08:16.982Z,22.03
2024-04-22T04:10:44.980Z,22.04
2024-04-22T04:13:17.547Z,22.04
2024-04-22T04:15:44.570Z,22.02
2024-04-22T04:18:14.442Z,22.02
2024-04-22T04:20:41.547Z,22.01
2024-04-22T04:23:11.298Z,22.00
2024-04-22T04:25:38.617Z,22.02
2024-04-22T04:28:08.611Z,22.02
2024-04-22T04:30:38.415Z,22.03
2024-04-22T04:33:08.603Z,22.05
2024-04-22T04:35:35.841Z,22.05
2024-04-22T04:38:05.561Z,22.06
2024-04-22T04:40:32.619Z,22.07
2024-04-22T04:43:02.423Z,22.08
2024-04-22T04:45:29.765Z,22.09
2024-04-22T04:48:02.347Z,22.07
2024-04-22T04:50:29.705Z,22.08
2024-04-22T04:52:59.507Z,22.09
2024-04-22T04:55:26.792Z,22.09
2024-04-22T04:57:56.558Z,22.08
2024-04-22T05:00:23.734Z,22.09
2024-04-22T05:02:53.582Z,22.07
2024-04-22T05:05:23.630Z,22.09
2024-04-22T05:07:54.378Z,22.09
2024-04-22T05:10:24.609Z,22.08
2024-04-22T05:12:55.822Z,22.09
2024-04-22T05:15:23.424Z,22.08
2024-04-22T05:17:53.705Z,22.12
2024-04-22T05:20:23.595Z,22.09
2024-04-22T05:22:53.474Z,22.09
2024-04-22T05:25:20.625Z,22.13
2024-04-22T05:27:50.485Z,22.13
2024-04-22T05:30:17.731Z,22.13
2024-04-22T05:32:47.581Z,22.14
2024-04-22T05:35:33.374Z,22.12
2024-04-22T05:38:06.095Z,22.12
2024-04-22T05:40:35.886Z,22.13
2024-04-22T05:43:05.730Z,22.13
2024-04-22T05:45:35.649Z,22.13
2024-04-22T05:48:05.511Z,22.12
2024-04-22T05:50:35.265Z,22.15
2024-04-22T05:53:08.099Z,22.14
2024-04-22T05:55:38.398Z,22.14
2024-04-22T05:58:05.616Z,22.13
2024-04-22T06:00:35.371Z,22.12
2024-04-22T06:03:02.552Z,22.11
2024-04-22T06:05:32.400Z,22.13
2024-04-22T06:07:59.481Z,22.13
2024-04-22T06:10:34.127Z,22.12
2024-04-22T06:13:02.036Z,22.13
2024-04-22T06:15:31.779Z,22.11
2024-04-22T06:17:58.964Z,22.09
2024-04-22T06:20:28.877Z,22.12
2024-04-22T06:22:56.130Z,22.13
2024-04-22T06:25:25.991Z,22.13
2024-04-22T06:27:55.767Z,22.13
2024-04-22T06:30:25.528Z,22.15
2024-04-22T06:32:52.883Z,22.16
2024-04-22T06:35:23.575Z,22.16
2024-04-22T06:37:50.710Z,22.16
2024-04-22T06:40:20.651Z,22.18
2024-04-22T06:42:47.780Z,22.18
2024-04-22T06:45:20.326Z,22.17
2024-04-22T06:47:47.457Z,22.16
2024-04-22T06:50:17.503Z,22.18
2024-04-22T06:52:44.743Z,22.16
2024-04-22T06:55:14.721Z,22.15
2024-04-22T06:57:41.799Z,22.17
2024-04-22T07:00:11.891Z,22.15
2024-04-22T07:02:41.670Z,22.14
2024-04-22T07:05:11.616Z,22.13
2024-04-22T07:07:38.880Z,22.12
2024-04-22T07:10:09.054Z,22.13
2024-04-22T07:12:36.207Z,22.12
2024-04-22T07:15:06.021Z,22.14
2024-04-22T07:17:35.476Z,22.15
2024-04-22T07:20:09.268Z,22.14
2024-04-22T07:22:39.895Z,22.17
2024-04-22T07:25:10.056Z,22.16
2024-04-22T07:27:37.631Z,22.17
2024-04-22T07:30:08.121Z,22.17
2024-04-22T07:32:36.163Z,22.17
2024-04-22T07:35:09.599Z,22.14
2024-04-22T07:37:38.418Z,22.11
2024-04-22T07:40:14.905Z,22.13
2024-04-22T07:42:42.174Z,22.15
2024-04-22T07:45:12.432Z,22.15
2024-04-22T07:47:41.202Z,22.17
2024-04-22T07:50:14.813Z,22.16
2024-04-22T07:52:42.739Z,22.16
2024-04-22T07:55:14.465Z,22.19
2024-04-22T07:57:42.776Z,22.18
2024-04-22T08:00:13.474Z,22.16
2024-04-22T08:02:41.758Z,22.18
2024-04-22T08:05:15.393Z,22.18
2024-04-22T08:07:42.863Z,22.18
2024-04-22T08:10:12.843Z,22.19
2024-04-22T08:12:40.270Z,22.18
2024-04-22T08:15:10.213Z,22.17
2024-04-22T08:17:37.693Z,22.19
2024-04-22T08:20:08.019Z,22.14
2024-04-22T08:22:37.965Z,22.15
2024-04-22T08:25:08.803Z,22.11
2024-04-22T08:27:35.915Z,22.12
2024-04-22T08:30:06.539Z,22.14
2024-04-22T08:32:34.025Z,22.14
2024-04-22T08:35:05.099Z,22.13
2024-04-22T08:37:32.295Z,22.14
2024-04-22T08:40:04.765Z,22.13
2024-04-22T08:42:32.085Z,22.14
2024-04-22T08:45:01.923Z,22.13
2024-04-22T08:47:29.219Z,22.15
2024-04-22T08:49:59.125Z,22.15
2024-04-22T08:52:36.575Z,22.17
2024-04-22T08:55:10.538Z,22.19
2024-04-22T08:57:40.403Z,22.19
2024-04-22T09:00:10.952Z,22.17
2024-04-22T09:02:40.583Z,22.19
2024-04-22T09:05:12.073Z,22.22
2024-04-22T09:07:39.944Z,22.22
2024-04-22T09:10:35.716Z,22.21
2024-04-22T09:13:02.624Z,22.21
2024-04-22T09:15:32.972Z,22.21
2024-04-22T09:18:02.812Z,22.20
2024-04-22T09:20:35.817Z,22.19
2024-04-22T09:23:03.262Z,22.19
2024-04-22T09:25:36.312Z,22.18
2024-04-22T09:28:04.557Z,22.18
2024-04-22T09:30:42.399Z,22.19
2024-04-22T09:33:10.663Z,22.19
2024-04-22T09:35:42.800Z,22.19
2024-04-22T09:38:10.678Z,22.20
2024-04-22T09:40:44.136Z,22.19
2024-04-22T09:43:13.108Z,22.22
2024-04-22T09:45:43.266Z,22.22
2024-04-22T09:48:11.933Z,22.23
2024-04-22T09:50:42.214Z,22.24
2024-04-22T09:53:10.779Z,22.21
2024-04-22T09:55:45.157Z,22.22
2024-04-22T09:58:13.693Z,22.20
2024-04-22T10:00:44.816Z,22.21
2024-04-22T10:03:12.211Z,22.18
2024-04-22T10:05:43.257Z,22.19
2024-04-22T10:08:11.609Z,22.19
2024-04-22T10:10:47.113Z,22.18
2024-04-22T10:13:14.626Z,22.17
2024-04-22T10:15:44.568Z,22.18
2024-04-22T10:18:12.296Z,22.16
2024-04-22T10:20:43.317Z,22.16
2024-04-22T10:23:13.483Z,22.17
2024-04-22T10:25:43.380Z,22.17
2024-04-22T10:28:13.493Z,22.18
2024-04-22T10:30:43.742Z,22.16
2024-04-22T10:33:13.779Z,22.17
2024-04-22T10:35:41.010Z,22.15
2024-04-22T10:38:10.870Z,22.15
2024-04-22T10:40:38.281Z,22.15
2024-04-22T10:43:08.292Z,22.13
2024-04-22T10:45:39.791Z,22.13
2024-04-22T10:48:17.178Z,22.15
2024-04-22T10:50:48.212Z,22.16
2024-04-22T10:53:18.129Z,22.16
2024-04-22T10:55:45.303Z,22.17
2024-04-22T10:58:16.383Z,22.18
2024-04-22T11:00:49.394Z,22.18
2024-04-22T11:03:21.293Z,22.19
2024-04-22T11:05:49.524Z,22.17
2024-04-22T11:08:19.979Z,22.16
2024-04-22T11:10:47.594Z,22.15
2024-04-22T11:13:18.290Z,22.15
2024-04-22T11:15:48.781Z,22.13
2024-04-22T11:18:22.644Z,22.16
2024-04-22T11:20:50.081Z,22.16
2024-04-22T11:23:21.628Z,22.17
2024-04-22T11:25:49.754Z,22.17
2024-04-22T11:28:22.194Z,22.18
2024-04-22T11:30:52.240Z,22.20
2024-04-22T11:33:24.312Z,22.22
2024-04-22T11:35:51.794Z,22.23
2024-04-22T11:38:22.041Z,22.21
2024-04-22T11:40:49.335Z,22.22
2024-04-22T11:43:19.169Z,22.21
2024-04-22T11:45:46.325Z,22.21
2024-04-22T11:48:19.234Z,22.21
2024-04-22T11:50:46.724Z,22.21
2024-04-22T11:53:23.573Z,22.21
2024-04-22T11:55:53.493Z,22.19
2024-04-22T11:58:25.758Z,22.17
2024-04-22T12:00:53.120Z,22.20
2024-04-22T12:03:25.943Z,22.18
2024-04-22T12:05:53.978Z,22.19
2024-04-22T12:08:23.849Z,22.19
2024-04-22T12:10:51.648Z,22.21
2024-04-22T12:13:22.550Z,22.22
2024-04-22T12:15:49.733Z,22.23
2024-04-22T12:18:19.544Z,22.22
2024-04-22T12:20:49.824Z,22.24
2024-04-22T12:23:19.734Z,22.25
2024-04-22T12:25:46.842Z,22.28
2024-04-22T12:28:21.927Z,22.26
2024-04-22T12:30:52.709Z,22.26
2024-04-22T12:33:23.013Z,22.24
2024-04-22T12:35:52.937Z,22.24
2024-04-22T12:38:22.754Z,22.22
2024-04-22T12:40:50.173Z,22.20
2024-04-22T12:43:20.305Z,22.21
2024-04-22T12:45:47.522Z,22.23
2024-04-22T12:48:33.470Z,22.24
2024-04-22T12:51:07.089Z,22.26
2024-04-22T12:53:37.019Z,22.29
2024-04-22T12:56:07.193Z,22.29
2024-04-22T12:58:39.048Z,22.30
2024-04-22T13:01:09.146Z,22.31
2024-04-22T13:03:39.143Z,22.30
2024-04-22T13:06:11.963Z,22.30
2024-04-22T13:08:41.780Z,22.31
2024-04-22T13:11:11.642Z,22.30
2024-04-22T13:13:41.606Z,22.32
2024-04-22T13:16:11.325Z,22.28
2024-04-22T13:18:38.450Z,22.26
2024-04-22T13:21:08.551Z,22.27
2024-04-22T13:23:38.468Z,22.25
2024-04-22T13:26:08.381Z,22.26
2024-04-22T13:28:35.735Z,22.25
2024-04-22T13:31:05.940Z,22.23
2024-04-22T13:33:33.815Z,22.26
2024-04-22T13:36:04.184Z,22.27
2024-04-22T13:38:31.310Z,22.30
2024-04-22T13:41:03.741Z,22.29
2024-04-22T13:43:31.120Z,22.31
2024-04-22T13:46:00.867Z,22.30
2024-04-22T13:48:28.114Z,22.32
2024-04-22T13:50:58.303Z,22.30
2024-04-22T13:53:31.580Z,22.32
2024-04-22T13:56:04.872Z,22.34
2024-04-22T13:58:31.977Z,22.34
2024-04-22T14:01:01.878Z,22.34
2024-04-22T14:03:29.213Z,22.33
2024-04-22T14:05:59.300Z,22.33
2024-04-22T14:08:26.946Z,22.35
2024-04-22T14:10:56.872Z,22.33
2024-04-22T14:13:29.368Z,22.35
2024-04-22T14:15:56.511Z,22.32
2024-04-22T14:18:26.426Z,22.30
2024-04-22T14:20:53.810Z,22.31
2024-04-22T14:23:23.728Z,22.31
2024-04-22T14:25:53.200Z,22.34
2024-04-22T14:28:23.351Z,22.32
2024-04-22T14:30:53.186Z,22.32
2024-04-22T14:33:23.936Z,22.34
2024-04-22T14:35:51.929Z,22.35
2024-04-22T14:38:23.147Z,22.35
2024-04-22T14:40:52.517Z,22.34
2024-04-22T14:43:22.816Z,22.33
2024-04-22T14:45:52.687Z,22.33
2024-04-22T14:48:22.755Z,22.34
2024-04-22T14:50:53.004Z,22.33
2024-04-22T14:53:22.980Z,22.35
2024-04-22T14:55:50.436Z,22.35
2024-04-22T14:58:20.500Z,22.33
2024-04-22T15:00:48.757Z,22.33
2024-04-22T15:03:21.436Z,22.33
2024-04-22T15:05:48.766Z,22.35
2024-04-22T15:08:18.601Z,22.34
2024-04-22T15:10:49.016Z,22.36
2024-04-22T15:13:18.948Z,22.36
2024-04-22T15:15:46.221Z,22.36
2024-04-22T15:18:16.084Z,22.35
2024-04-22T15:20:45.909Z,22.34
2024-04-22T15:23:15.667Z,22.33
2024-04-22T15:25:42.764Z,22.33
2024-04-22T15:28:13.998Z,22.32
2024-04-22T15:30:41.060Z,22.33
2024-04-22T15:33:11.157Z,22.32
2024-04-22T15:35:38.390Z,22.33
2024-04-22T15:38:11.013Z,22.31
2024-04-22T15:40:38.587Z,22.32
2024-04-22T15:43:08.816Z,22.31
2024-04-22T15:45:35.987Z,22.31
2024-04-22T15:48:07.625Z,22.33
2024-04-22T15:50:38.252Z,22.33
2024-04-22T15:53:12.564Z,22.32
2024-04-22T15:55:44.285Z,22.35
2024-04-22T15:58:12.709Z,22.34
2024-04-22T16:00:42.666Z,22.35
2024-04-22T16:03:09.789Z,22.34
2024-04-22T16:05:39.589Z,22.34
2024-04-22T16:08:09.544Z,22.34
2024-04-22T16:10:40.240Z,22.32
2024-04-22T16:13:07.348Z,22.35
2024-04-22T16:15:37.197Z,22.34
2024-04-22T16:18:04.714Z,22.34
2024-04-22T16:20:34.616Z,22.31
2024-04-22T16:23:04.205Z,22.35
2024-04-22T16:25:38.366Z,22.35
2024-04-22T16:28:05.921Z,22.34
2024-04-22T16:30:35.647Z,22.34
2024-04-22T16:33:02.984Z,22.35
2024-04-22T16:35:33.271Z,22.35
2024-04-22T16:38:01.023Z,22.33
2024-04-22T16:40:30.805Z,22.35
2024-04-22T16:43:00.630Z,22.34
2024-04-22T16:45:30.900Z,22.37
2024-04-22T16:48:01.720Z,22.35
2024-04-22T16:50:31.714Z,22.35
2024-04-22T16:52:59.982Z,22.35
2024-04-22T16:55:29.816Z,22.34
2024-04-22T16:57:56.961Z,22.34
2024-04-22T17:00:29.994Z,22.35
2024-04-22T17:02:57.065Z,22.35
2024-04-22T17:05:27.850Z,22.35
2024-04-22T17:07:55.027Z,22.31
2024-04-22T17:10:24.956Z,22.33
2024-04-22T17:12:56.188Z,22.33
2024-04-22T17:15:29.688Z,22.31
2024-04-22T17:17:56.857Z,22.32
2024-04-22T17:20:26.719Z,22.34
2024-04-22T17:22:53.889Z,22.33
2024-04-22T17:25:23.666Z,22.31
2024-04-22T17:27:51.221Z,22.31
2024-04-22T17:30:21.083Z,22.31
2024-04-22T17:32:50.990Z,22.32
2024-04-22T17:35:20.785Z,22.31
2024-04-22T17:37:48.064Z,22.30
2024-04-22T17:40:20.263Z,22.30
2024-04-22T17:42:47.383Z,22.32
2024-04-22T17:45:17.215Z,22.32
2024-04-22T17:47:44.377Z,22.33
2024-04-22T17:50:16.942Z,22.32
2024-04-22T17:52:44.229Z,22.32
2024-04-22T17:55:13.981Z,22.33
2024-04-22T17:57:41.123Z,22.31
2024-04-22T18:00:15.124Z,22.31
2024-04-22T18:02:44.047Z,22.32
2024-04-22T18:05:16.544Z,22.31
2024-04-22T18:07:43.725Z,22.34
2024-04-22T18:10:13.507Z,22.33
2024-04-22T18:12:42.020Z,22.31
2024-04-22T18:15:11.960Z,22.32
2024-04-22T18:17:39.270Z,22.33
2024-04-22T18:20:12.479Z,22.32
2024-04-22T18:22:47.063Z,22.33
2024-04-22T18:25:22.729Z,22.33
2024-04-22T18:27:51.551Z,22.32
2024-04-22T18:30:21.331Z,22.32
2024-04-22T18:32:48.538Z,22.33
2024-04-22T18:35:18.375Z,22.33
2024-04-22T18:37:48.271Z,22.32
2024-04-22T18:40:18.130Z,22.33
2024-04-22T18:42:45.329Z,22.32
2024-04-22T18:45:15.087Z,22.30
2024-04-22T18:47:42.283Z,22.30
2024-04-22T18:50:12.185Z,22.31
2024-04-22T18:52:39.251Z,22.31
2024-04-22T18:55:12.087Z,22.33
2024-04-22T18:57:39.119Z,22.30
2024-04-22T19:00:11.494Z,22.33
2024-04-22T19:02:38.770Z,22.31
2024-04-22T19:05:08.670Z,22.32
2024-04-22T19:07:37.211Z,22.31
2024-04-22T19:10:12.323Z,22.33
2024-04-22T19:12:39.470Z,22.32
2024-04-22T19:15:09.536Z,22.30
2024-04-22T19:17:36.788Z,22.27
2024-04-22T19:20:07.853Z,22.28
2024-04-22T19:22:34.970Z,22.29
2024-04-22T19:25:04.747Z,22.29
2024-04-22T19:27:34.544Z,22.30
2024-04-22T19:30:04.266Z,22.29
2024-04-22T19:32:31.357Z,22.29
2024-04-22T19:35:01.262Z,22.27
2024-04-22T19:37:28.453Z,22.28
2024-04-22T19:39:58.207Z,22.30
2024-04-22T19:42:25.319Z,22.31
2024-04-22T19:44:57.754Z,22.31
2024-04-22T19:47:25.071Z,22.32
2024-04-22T19:49:55.052Z,22.31
2024-04-22T19:52:22.294Z,22.31
2024-04-22T19:54:55.162Z,22.33
2024-04-22T19:57:23.350Z,22.31
2024-04-22T19:59:53.549Z,22.31
2024-04-22T20:02:30.582Z,22.32
2024-04-22T20:05:00.667Z,22.03
2024-04-22T20:07:28.162Z,22.28
2024-04-22T20:09:57.977Z,22.30
2024-04-22T20:12:25.028Z,22.28
2024-04-22T20:14:55.525Z,22.27
2024-04-22T20:17:42.980Z,22.27
2024-04-22T20:20:13.044Z,22.27
2024-04-22T20:22:40.177Z,22.27
2024-04-22T20:25:10.043Z,22.28
2024-04-22T20:27:37.276Z,22.28
2024-04-22T20:30:07.253Z,22.28
2024-04-22T20:32:37.156Z,22.27
2024-04-22T20:35:07.779Z,22.29
2024-04-22T20:37:35.119Z,22.27
2024-04-22T20:40:05.171Z,22.29
2024-04-22T20:42:32.395Z,22.27
2024-04-22T20:45:02.158Z,22.27
2024-04-22T20:47:29.350Z,22.28
2024-04-22T20:50:01.767Z,21.73
2024-04-22T20:52:28.955Z,22.28
2024-04-22T20:54:58.647Z,22.28
2024-04-22T20:57:26.228Z,22.29
2024-04-22T20:59:55.977Z,22.29
2024-04-22T21:02:23.045Z,22.26
2024-04-22T21:04:52.826Z,22.28
2024-04-22T21:07:22.652Z,22.27
2024-04-22T21:09:52.375Z,22.29
2024-04-22T21:12:19.665Z,22.27
2024-04-22T21:14:49.488Z,22.29
2024-04-22T21:17:16.653Z,22.28
2024-04-22T21:19:46.496Z,22.29
2024-04-22T21:22:13.518Z,22.28
2024-04-22T21:24:45.889Z,22.27
2024-04-22T21:27:12.905Z,22.27
2024-04-22T21:29:42.620Z,22.24
2024-04-22T21:32:09.707Z,22.26
2024-04-22T21:34:39.592Z,22.25
2024-04-22T21:37:07.038Z,22.24
2024-04-22T21:39:36.973Z,22.06
2024-04-22T21:42:06.910Z,22.27
2024-04-22T21:44:36.643Z,22.27
2024-04-22T21:47:03.814Z,22.26
2024-04-22T21:49:33.602Z,22.26
2024-04-22T21:52:00.721Z,22.24
2024-04-22T21:54:30.463Z,22.26
2024-04-22T21:57:16.091Z,22.26
2024-04-22T22:00:06.053Z,22.28
2024-04-22T22:02:54.031Z,22.25
2024-04-22T22:05:42.351Z,22.26
2024-04-22T22:08:10.512Z,22.28
2024-04-22T22:10:44.604Z,22.27
2024-04-22T22:13:11.896Z,22.28
2024-04-22T22:15:41.759Z,22.27
2024-04-22T22:18:09.345Z,22.29
2024-04-22T22:20:39.215Z,22.28
2024-04-22T22:23:06.479Z,22.26
2024-04-22T22:25:36.332Z,22.24
2024-04-22T22:28:06.555Z,22.27
2024-04-22T22:30:36.274Z,22.25
2024-04-22T22:33:03.449Z,22.24
2024-04-22T22:35:33.178Z,22.26
2024-04-22T22:38:00.355Z,22.25
2024-04-22T22:40:30.307Z,22.27
2024-04-22T22:43:00.491Z,22.24
2024-04-22T22:45:32.990Z,22.26
2024-04-22T22:48:00.318Z,22.24
2024-04-22T22:50:30.146Z,22.23
2024-04-22T22:52:57.374Z,22.25
2024-04-22T22:55:27.235Z,22.25
2024-04-22T22:57:54.275Z,22.25
2024-04-22T23:00:24.110Z,22.25
2024-04-22T23:02:54.094Z,22.23
2024-04-22T23:05:23.919Z,22.22
2024-04-22T23:07:51.012Z,22.24
2024-04-22T23:10:20.816Z,22.24
2024-04-22T23:12:47.911Z,22.24
2024-04-22T23:15:17.853Z,22.22
2024-04-22T23:17:45.021Z,22.23
2024-04-22T23:20:17.552Z,22.24
2024-04-22T23:22:44.648Z,22.23
2024-04-22T23:25:14.505Z,22.23
2024-04-22T23:27:42.370Z,22.25
2024-04-22T23:30:12.599Z,22.26
2024-04-22T23:32:39.792Z,22.27
2024-04-22T23:35:09.761Z,22.24
2024-04-22T23:37:39.549Z,22.23
2024-04-22T23:40:09.788Z,22.22
2024-04-22T23:42:36.977Z,22.25
2024-04-22T23:45:07.049Z,22.22
2024-04-22T23:47:34.853Z,22.24
2024-04-22T23:50:23.412Z,22.25
2024-04-22T23:52:53.263Z,22.24
2024-04-22T23:55:23.174Z,22.24
2024-04-22T23:57:50.369Z,22.23
